createdAt,value
2023-03-24T00:00:01.229Z,1006
2023-03-24T00:01:01.108Z,1005.95
2023-03-24T00:02:01.122Z,1005.94
2023-03-24T00:03:01.102Z,1005.93
2023-03-24T00:04:01.163Z,1005.88
2023-03-24T00:05:01.034Z,1005.96
2023-03-24T00:06:01.038Z,1005.96
2023-03-24T00:07:01.114Z,1005.95
2023-03-24T00:08:02.467Z,1005.96
2023-03-24T00:09:01.244Z,1005.95
2023-03-24T00:10:01.457Z,1005.93
2023-03-24T00:11:01.885Z,1005.97
2023-03-24T00:12:01.759Z,1005.9
2023-03-24T00:13:01.073Z,1005.93
2023-03-24T00:14:01.107Z,1005.93
2023-03-24T00:15:01.104Z,1005.92
2023-03-24T00:16:01.540Z,1005.96
2023-03-24T00:17:01.043Z,1005.96
2023-03-24T00:18:01.208Z,1005.91
2023-03-24T00:19:01.117Z,1005.95
2023-03-24T00:20:01.135Z,1005.93
2023-03-24T00:21:01.142Z,1005.95
2023-03-24T00:22:01.049Z,1005.96
2023-03-24T00:23:01.064Z,1005.91
2023-03-24T00:24:01.101Z,1005.95
2023-03-24T00:25:01.142Z,1005.84
2023-03-24T00:26:01.066Z,1005.88
2023-03-24T00:27:01.076Z,1005.83
2023-03-24T00:28:01.077Z,1005.86
2023-03-24T00:29:01.084Z,1005.81
2023-03-24T00:30:01.106Z,1005.85
2023-03-24T00:31:01.130Z,1005.75
2023-03-24T00:32:01.225Z,1005.75
2023-03-24T00:33:01.525Z,1005.76
2023-03-24T00:34:01.234Z,1005.72
2023-03-24T00:35:01.142Z,1005.73
2023-03-24T00:36:01.162Z,1005.74
2023-03-24T00:37:01.027Z,1005.7
2023-03-24T00:38:01.030Z,1005.67
2023-03-24T00:39:01.159Z,1005.66
2023-03-24T00:40:01.181Z,1005.65
2023-03-24T00:41:01.773Z,1005.65
2023-03-24T00:42:01.061Z,1005.65
2023-03-24T00:43:01.021Z,1005.62
2023-03-24T00:44:01.171Z,1005.62
2023-03-24T00:45:01.101Z,1005.61
2023-03-24T00:46:01.307Z,1005.63
2023-03-24T00:47:01.267Z,1005.6
2023-03-24T00:48:01.980Z,1005.67
2023-03-24T00:49:02.386Z,1005.64
2023-03-24T00:50:01.048Z,1005.61
2023-03-24T00:51:01.214Z,1005.58
2023-03-24T00:52:01.031Z,1005.58
2023-03-24T00:53:01.041Z,1005.58
2023-03-24T00:54:01.448Z,1005.61
2023-03-24T00:55:01.061Z,1005.59
2023-03-24T00:56:02.825Z,1005.53
2023-03-24T00:57:00.971Z,1005.55
2023-03-24T00:58:00.655Z,1005.52
2023-03-24T00:59:00.351Z,1005.42
2023-03-24T00:59:59.966Z,1005.45
2023-03-24T01:01:04.749Z,1005.44
2023-03-24T01:02:01.442Z,1005.45
2023-03-24T01:03:01.501Z,1005.43
2023-03-24T01:04:01.220Z,1005.49
2023-03-24T01:05:01.231Z,1005.48
2023-03-24T01:06:07.852Z,1005.4
2023-03-24T01:07:01.125Z,1005.43
2023-03-24T01:08:01.156Z,1005.46
2023-03-24T01:09:01.198Z,1005.46
2023-03-24T01:10:01.046Z,1005.44
2023-03-24T01:11:11.354Z,1005.39
2023-03-24T01:12:01.171Z,1005.38
2023-03-24T01:13:01.062Z,1005.4
2023-03-24T01:14:03.750Z,1005.39
2023-03-24T01:15:01.207Z,1005.38
2023-03-24T01:16:13.694Z,1005.36
2023-03-24T01:17:01.093Z,1005.34
2023-03-24T01:18:01.127Z,1005.33
2023-03-24T01:19:01.134Z,1005.34
2023-03-24T01:20:01.828Z,1005.36
2023-03-24T01:21:16.765Z,1005.35
2023-03-24T01:22:01.312Z,1005.32
2023-03-24T01:23:02.090Z,1005.33
2023-03-24T01:24:02.862Z,1005.27
2023-03-24T01:25:01.130Z,1005.3
2023-03-24T01:26:01.057Z,1005.24
2023-03-24T01:27:01.053Z,1005.2
2023-03-24T01:28:01.799Z,1005.2
2023-03-24T01:29:01.727Z,1005.23
2023-03-24T01:30:01.698Z,1005.14
2023-03-24T01:31:02.301Z,1005.13
2023-03-24T01:32:01.183Z,1005.16
2023-03-24T01:33:02.036Z,1005.1
2023-03-24T01:34:01.290Z,1005.06
2023-03-24T01:35:01.035Z,1005.02
2023-03-24T01:36:01.136Z,1005.03
2023-03-24T01:37:01.156Z,1005.04
2023-03-24T01:38:01.418Z,1005.01
2023-03-24T01:39:01.247Z,1004.98
2023-03-24T01:40:01.201Z,1005.01
2023-03-24T01:41:01.146Z,1004.99
2023-03-24T01:42:01.480Z,1004.98
2023-03-24T01:43:01.056Z,1004.93
2023-03-24T01:44:01.072Z,1004.93
2023-03-24T01:45:01.225Z,1004.91
2023-03-24T01:46:01.155Z,1004.9
2023-03-24T01:47:01.452Z,1004.84
2023-03-24T01:48:01.054Z,1004.85
2023-03-24T01:49:01.074Z,1004.86
2023-03-24T01:50:01.081Z,1004.83
2023-03-24T01:51:01.123Z,1004.8
2023-03-24T01:52:01.089Z,1004.81
2023-03-24T01:53:00.817Z,1004.79
2023-03-24T01:54:01.116Z,1004.73
2023-03-24T01:55:01.170Z,1004.78
2023-03-24T01:56:01.198Z,1004.77
2023-03-24T01:57:01.081Z,1004.74
2023-03-24T01:58:01.045Z,1004.68
2023-03-24T01:59:04.041Z,1004.7
2023-03-24T02:00:01.758Z,1004.67
2023-03-24T02:01:01.100Z,1004.67
2023-03-24T02:02:00.604Z,1004.63
2023-03-24T02:03:00.359Z,1004.57
2023-03-24T02:04:00.163Z,1004.52
2023-03-24T02:04:59.837Z,1004.49
2023-03-24T02:06:02.093Z,1004.52
2023-03-24T02:07:01.105Z,1004.54
2023-03-24T02:08:01.100Z,1004.53
2023-03-24T02:09:01.129Z,1004.54
2023-03-24T02:10:01.141Z,1004.53
2023-03-24T02:11:01.224Z,1004.56
2023-03-24T02:12:01.271Z,1004.54
2023-03-24T02:13:01.134Z,1004.51
2023-03-24T02:14:01.044Z,1004.53
2023-03-24T02:15:01.477Z,1004.5
2023-03-24T02:16:01.475Z,1004.51
2023-03-24T02:17:01.063Z,1004.53
2023-03-24T02:18:01.234Z,1004.52
2023-03-24T02:19:01.237Z,1004.53
2023-03-24T02:20:02.001Z,1004.46
2023-03-24T02:21:02.038Z,1004.49
2023-03-24T02:22:02.121Z,1004.47
2023-03-24T02:23:01.177Z,1004.48
2023-03-24T02:24:01.166Z,1004.46
2023-03-24T02:25:01.115Z,1004.47
2023-03-24T02:26:01.139Z,1004.42
2023-03-24T02:27:01.124Z,1004.42
2023-03-24T02:28:01.118Z,1004.39
2023-03-24T02:29:01.030Z,1004.41
2023-03-24T02:30:01.049Z,1004.38
2023-03-24T02:31:01.085Z,1004.39
2023-03-24T02:32:01.197Z,1004.34
2023-03-24T02:33:01.210Z,1004.29
2023-03-24T02:34:01.304Z,1004.33
2023-03-24T02:35:02.138Z,1004.24
2023-03-24T02:36:01.220Z,1004.26
2023-03-24T02:37:01.038Z,1004.26
2023-03-24T02:38:01.055Z,1004.23
2023-03-24T02:39:01.160Z,1004.21
2023-03-24T02:40:01.106Z,1004.18
2023-03-24T02:41:01.131Z,1004.15
2023-03-24T02:42:01.287Z,1004.19
2023-03-24T02:43:01.704Z,1004.1
2023-03-24T02:44:02.114Z,1004.11
2023-03-24T02:45:01.986Z,1004.09
2023-03-24T02:46:01.776Z,1004.06
2023-03-24T02:47:04.432Z,1004.08
2023-03-24T02:48:01.490Z,1003.99
2023-03-24T02:49:01.082Z,1004.05
2023-03-24T02:50:01.398Z,1004.01
2023-03-24T02:51:01.390Z,1004.04
2023-03-24T02:52:07.229Z,1004
2023-03-24T02:53:01.255Z,1003.99
2023-03-24T02:54:01.931Z,1004.01
2023-03-24T02:55:01.900Z,1003.97
2023-03-24T02:56:01.104Z,1003.9
2023-03-24T02:57:10.370Z,1003.95
2023-03-24T02:58:01.115Z,1003.95
2023-03-24T02:59:00.843Z,1003.93
2023-03-24T03:00:00.403Z,1003.91
2023-03-24T03:01:00.009Z,1003.92
2023-03-24T03:02:12.129Z,1003.92
2023-03-24T03:03:01.086Z,1003.91
2023-03-24T03:04:01.071Z,1003.83
2023-03-24T03:05:01.097Z,1003.9
2023-03-24T03:06:01.070Z,1003.83
2023-03-24T03:07:14.945Z,1003.81
2023-03-24T03:08:01.118Z,1003.74
2023-03-24T03:09:01.528Z,1003.74
2023-03-24T03:10:01.096Z,1003.76
2023-03-24T03:11:01.144Z,1003.68
2023-03-24T03:12:01.103Z,1003.7
2023-03-24T03:13:01.120Z,1003.69
2023-03-24T03:14:01.126Z,1003.71
2023-03-24T03:15:01.119Z,1003.7
2023-03-24T03:16:01.223Z,1003.71
2023-03-24T03:17:01.182Z,1003.74
2023-03-24T03:18:02.145Z,1003.78
2023-03-24T03:19:01.022Z,1003.75
2023-03-24T03:20:01.046Z,1003.75
2023-03-24T03:21:01.051Z,1003.75
2023-03-24T03:22:01.080Z,1003.76
2023-03-24T03:23:01.084Z,1003.78
2023-03-24T03:24:01.261Z,1003.77
2023-03-24T03:25:01.457Z,1003.78
2023-03-24T03:26:01.105Z,1003.81
2023-03-24T03:27:01.122Z,1003.85
2023-03-24T03:28:01.118Z,1003.79
2023-03-24T03:29:01.419Z,1003.81
2023-03-24T03:30:02.566Z,1003.77
2023-03-24T03:31:02.588Z,1003.8
2023-03-24T03:32:01.266Z,1003.7
2023-03-24T03:33:02.844Z,1003.78
2023-03-24T03:34:01.065Z,1003.81
2023-03-24T03:35:01.051Z,1003.74
2023-03-24T03:36:01.079Z,1003.79
2023-03-24T03:37:01.101Z,1003.77
2023-03-24T03:38:01.237Z,1003.78
2023-03-24T03:39:01.465Z,1003.73
2023-03-24T03:40:08.098Z,1003.73
2023-03-24T03:41:02.101Z,1003.81
2023-03-24T03:42:01.905Z,1003.73
2023-03-24T03:43:01.112Z,1003.76
2023-03-24T03:44:01.132Z,1003.71
2023-03-24T03:45:01.207Z,1003.72
2023-03-24T03:46:01.222Z,1003.7
2023-03-24T03:47:01.132Z,1003.72
2023-03-24T03:48:01.545Z,1003.72
2023-03-24T03:49:01.047Z,1003.75
2023-03-24T03:50:01.052Z,1003.76
2023-03-24T03:51:13.168Z,1003.65
2023-03-24T03:52:01.055Z,1003.68
2023-03-24T03:53:01.085Z,1003.7
2023-03-24T03:54:01.208Z,1003.7
2023-03-24T03:55:01.319Z,1003.66
2023-03-24T03:56:01.125Z,1003.68
2023-03-24T03:57:01.503Z,1003.69
2023-03-24T03:58:01.090Z,1003.65
2023-03-24T03:59:01.786Z,1003.67
2023-03-24T04:00:01.120Z,1003.66
2023-03-24T04:01:01.119Z,1003.63
2023-03-24T04:02:01.833Z,1003.66
2023-03-24T04:03:02.606Z,1003.63
2023-03-24T04:04:01.296Z,1003.64
2023-03-24T04:05:06.613Z,1003.66
2023-03-24T04:06:02.064Z,1003.64
2023-03-24T04:07:01.029Z,1003.63
2023-03-24T04:08:01.050Z,1003.65
2023-03-24T04:09:01.044Z,1003.65
2023-03-24T04:10:01.853Z,1003.69
2023-03-24T04:11:01.098Z,1003.66
2023-03-24T04:12:01.091Z,1003.69
2023-03-24T04:13:01.931Z,1003.72
2023-03-24T04:14:01.385Z,1003.71
2023-03-24T04:15:01.430Z,1003.72
2023-03-24T04:16:02.202Z,1003.74
2023-03-24T04:17:01.107Z,1003.68
2023-03-24T04:18:00.820Z,1003.71
2023-03-24T04:19:00.558Z,1003.71
2023-03-24T04:20:00.244Z,1003.72
2023-03-24T04:21:00.098Z,1003.7
2023-03-24T04:22:00.030Z,1003.67
2023-03-24T04:23:01.170Z,1003.64
2023-03-24T04:24:01.453Z,1003.7
2023-03-24T04:25:02.150Z,1003.67
2023-03-24T04:26:01.099Z,1003.65
2023-03-24T04:27:01.091Z,1003.66
2023-03-24T04:28:04.352Z,1003.61
2023-03-24T04:29:01.089Z,1003.62
2023-03-24T04:30:01.167Z,1003.56
2023-03-24T04:31:00.830Z,1003.59
2023-03-24T04:32:01.145Z,1003.6
2023-03-24T04:33:08.048Z,1003.55
2023-03-24T04:34:01.282Z,1003.49
2023-03-24T04:35:00.684Z,1003.52
2023-03-24T04:36:00.325Z,1003.54
2023-03-24T04:36:59.892Z,1003.53
2023-03-24T04:38:08.877Z,1003.5
2023-03-24T04:39:01.091Z,1003.5
2023-03-24T04:40:01.354Z,1003.53
2023-03-24T04:41:01.458Z,1003.41
2023-03-24T04:42:01.168Z,1003.38
2023-03-24T04:43:12.768Z,1003.33
2023-03-24T04:44:01.095Z,1003.29
2023-03-24T04:45:01.697Z,1003.28
2023-03-24T04:46:01.961Z,1003.28
2023-03-24T04:47:01.130Z,1003.18
2023-03-24T04:48:16.363Z,1003.24
2023-03-24T04:49:01.795Z,1003.25
2023-03-24T04:50:01.513Z,1003.27
2023-03-24T04:51:01.249Z,1003.31
2023-03-24T04:52:01.170Z,1003.3
2023-03-24T04:53:01.851Z,1003.31
2023-03-24T04:54:01.768Z,1003.31
2023-03-24T04:55:01.451Z,1003.32
2023-03-24T04:56:01.076Z,1003.33
2023-03-24T04:57:01.110Z,1003.36
2023-03-24T04:58:00.769Z,1003.29
2023-03-24T04:59:00.468Z,1003.26
2023-03-24T05:00:00.150Z,1003.23
2023-03-24T05:00:59.923Z,1003.26
2023-03-24T05:01:59.652Z,1003.23
2023-03-24T05:03:01.323Z,1003.21
2023-03-24T05:04:02.164Z,1003.24
2023-03-24T05:05:01.035Z,1003.24
2023-03-24T05:06:01.161Z,1003.26
2023-03-24T05:07:02.063Z,1003.22
2023-03-24T05:08:01.179Z,1003.23
2023-03-24T05:09:01.423Z,1003.21
2023-03-24T05:10:02.721Z,1003.17
2023-03-24T05:11:01.038Z,1003.16
2023-03-24T05:12:01.892Z,1003.16
2023-03-24T05:13:01.067Z,1003.13
2023-03-24T05:14:01.082Z,1003.12
2023-03-24T05:15:01.794Z,1003.11
2023-03-24T05:16:00.858Z,1003.1
2023-03-24T05:17:01.102Z,1003.05
2023-03-24T05:18:01.518Z,1003.05
2023-03-24T05:19:00.903Z,1003.07
2023-03-24T05:20:00.633Z,1003.06
2023-03-24T05:21:00.292Z,1003.07
2023-03-24T05:21:59.916Z,1003.14
2023-03-24T05:22:59.489Z,1003.15
2023-03-24T05:24:01.128Z,1003.15
2023-03-24T05:25:01.400Z,1003.11
2023-03-24T05:26:01.467Z,1003.13
2023-03-24T05:27:01.516Z,1003.12
2023-03-24T05:28:01.200Z,1003.08
2023-03-24T05:29:01.111Z,1003.11
2023-03-24T05:30:00.703Z,1003.11
2023-03-24T05:31:00.406Z,1003.07
2023-03-24T05:32:00.112Z,1003.14
2023-03-24T05:32:59.818Z,1003.09
2023-03-24T05:34:01.491Z,1003.09
2023-03-24T05:35:04.630Z,1003.14
2023-03-24T05:36:01.250Z,1003.12
2023-03-24T05:37:01.333Z,1003.08
2023-03-24T05:38:01.828Z,1003.05
2023-03-24T05:39:01.110Z,1003.05
2023-03-24T05:40:00.844Z,1003.08
2023-03-24T05:41:00.413Z,1003.08
2023-03-24T05:42:00.017Z,1003.08
2023-03-24T05:42:59.717Z,1003.07
2023-03-24T05:44:01.985Z,1003.04
2023-03-24T05:45:01.947Z,1003.07
2023-03-24T05:46:01.123Z,1003.12
2023-03-24T05:47:01.183Z,1003.09
2023-03-24T05:48:01.098Z,1003.13
2023-03-24T05:49:01.416Z,1003.08
2023-03-24T05:50:01.874Z,1003.09
2023-03-24T05:51:01.336Z,1003.11
2023-03-24T05:52:01.700Z,1003.03
2023-03-24T05:53:01.168Z,1003.09
2023-03-24T05:54:01.119Z,1003.03
2023-03-24T05:55:01.411Z,1003.03
2023-03-24T05:56:01.197Z,1003.05
2023-03-24T05:57:01.198Z,1002.97
2023-03-24T05:58:01.426Z,1002.94
2023-03-24T05:59:00.944Z,1002.93
2023-03-24T06:00:01.117Z,1002.85
2023-03-24T06:01:01.066Z,1002.83
2023-03-24T06:02:01.287Z,1002.79
2023-03-24T06:03:03.463Z,1002.79
2023-03-24T06:04:02.223Z,1002.82
2023-03-24T06:05:01.600Z,1002.79
2023-03-24T06:06:02.108Z,1002.73
2023-03-24T06:07:01.110Z,1002.77
2023-03-24T06:08:01.124Z,1002.78
2023-03-24T06:09:06.151Z,1002.75
2023-03-24T06:10:01.518Z,1002.74
2023-03-24T06:11:01.613Z,1002.72
2023-03-24T06:12:01.349Z,1002.69
2023-03-24T06:13:01.033Z,1002.66
2023-03-24T06:14:01.076Z,1002.64
2023-03-24T06:15:01.085Z,1002.62
2023-03-24T06:16:03.715Z,1002.58
2023-03-24T06:17:01.168Z,1002.56
2023-03-24T06:18:01.147Z,1002.52
2023-03-24T06:19:00.857Z,1002.47
2023-03-24T06:20:01.103Z,1002.48
2023-03-24T06:21:00.768Z,1002.48
2023-03-24T06:22:00.400Z,1002.48
2023-03-24T06:23:00.220Z,1002.5
2023-03-24T06:23:59.968Z,1002.48
2023-03-24T06:25:01.491Z,1002.51
2023-03-24T06:26:01.228Z,1002.47
2023-03-24T06:27:01.205Z,1002.44
2023-03-24T06:28:01.044Z,1002.39
2023-03-24T06:29:01.028Z,1002.41
2023-03-24T06:30:01.070Z,1002.39
2023-03-24T06:31:01.130Z,1002.39
2023-03-24T06:32:01.050Z,1002.32
2023-03-24T06:33:01.068Z,1002.35
2023-03-24T06:34:01.065Z,1002.3
2023-03-24T06:35:00.762Z,1002.31
2023-03-24T06:36:00.498Z,1002.25
2023-03-24T06:37:00.166Z,1002.24
2023-03-24T06:37:59.767Z,1002.21
2023-03-24T06:39:01.510Z,1002.19
2023-03-24T06:40:01.116Z,1002.2
2023-03-24T06:41:01.108Z,1002.23
2023-03-24T06:42:01.136Z,1002.29
2023-03-24T06:43:01.058Z,1002.22
2023-03-24T06:44:01.240Z,1002.16
2023-03-24T06:45:01.218Z,1002.13
2023-03-24T06:46:01.211Z,1002.08
2023-03-24T06:47:08.009Z,1002.06
2023-03-24T06:48:03.516Z,1002.07
2023-03-24T06:49:01.073Z,1002.05
2023-03-24T06:50:00.652Z,1002.04
2023-03-24T06:51:00.261Z,1002.03
2023-03-24T06:51:59.860Z,1002.05
2023-03-24T06:53:06.571Z,1002.02
2023-03-24T06:54:01.221Z,1002.04
2023-03-24T06:55:02.705Z,1002.08
2023-03-24T06:56:01.499Z,1002.03
2023-03-24T06:57:01.166Z,1002.02
2023-03-24T06:58:10.275Z,1001.98
2023-03-24T06:59:00.918Z,1002.04
2023-03-24T07:00:01.523Z,1001.97
2023-03-24T07:01:01.967Z,1001.97
2023-03-24T07:02:01.099Z,1002
2023-03-24T07:03:13.806Z,1001.99
2023-03-24T07:04:01.108Z,1002
2023-03-24T07:05:01.055Z,1002
2023-03-24T07:06:01.025Z,1001.98
2023-03-24T07:07:22.522Z,1001.93
2023-03-24T07:08:36.329Z,1001.93
2023-03-24T07:09:01.483Z,1001.95
2023-03-24T07:10:01.110Z,1001.92
2023-03-24T07:11:01.136Z,1001.92
2023-03-24T07:12:01.817Z,1001.89
2023-03-24T07:13:01.929Z,1001.85
2023-03-24T07:14:02.598Z,1001.81
2023-03-24T07:15:01.316Z,1001.84
2023-03-24T07:16:01.220Z,1001.86
2023-03-24T07:17:01.202Z,1001.81
2023-03-24T07:18:01.381Z,1001.83
2023-03-24T07:19:00.945Z,1001.77
2023-03-24T07:20:01.051Z,1001.78
2023-03-24T07:21:01.058Z,1001.73
2023-03-24T07:22:01.081Z,1001.75
2023-03-24T07:23:01.074Z,1001.7
2023-03-24T07:24:01.086Z,1001.7
2023-03-24T07:25:01.339Z,1001.69
2023-03-24T07:26:01.596Z,1001.66
2023-03-24T07:27:01.476Z,1001.72
2023-03-24T07:28:04.296Z,1001.71
2023-03-24T07:29:01.192Z,1001.74
2023-03-24T07:30:01.738Z,1001.78
2023-03-24T07:31:01.448Z,1001.74
2023-03-24T07:32:02.642Z,1001.77
2023-03-24T07:33:01.201Z,1001.7
2023-03-24T07:34:02.294Z,1001.74
2023-03-24T07:35:04.481Z,1001.78
2023-03-24T07:36:04.947Z,1001.78
2023-03-24T07:37:02.156Z,1001.79
2023-03-24T07:38:02.084Z,1001.8
2023-03-24T07:39:01.084Z,1001.71
2023-03-24T07:40:01.115Z,1001.77
2023-03-24T07:41:01.094Z,1001.71
2023-03-24T07:42:01.111Z,1001.72
2023-03-24T07:43:01.096Z,1001.75
2023-03-24T07:44:01.494Z,1001.67
2023-03-24T07:45:01.689Z,1001.72
2023-03-24T07:46:01.336Z,1001.67
2023-03-24T07:47:01.036Z,1001.66
2023-03-24T07:48:01.049Z,1001.65
2023-03-24T07:49:12.251Z,1001.65
2023-03-24T07:50:01.735Z,1001.67
2023-03-24T07:51:01.451Z,1001.6
2023-03-24T07:52:01.139Z,1001.64
2023-03-24T07:53:01.076Z,1001.63
2023-03-24T07:54:01.100Z,1001.57
2023-03-24T07:55:01.035Z,1001.62
2023-03-24T07:56:01.026Z,1001.65
2023-03-24T07:57:01.607Z,1001.62
2023-03-24T07:58:01.501Z,1001.59
2023-03-24T07:59:02.360Z,1001.57
2023-03-24T08:00:01.208Z,1001.55
2023-03-24T08:01:01.160Z,1001.5
2023-03-24T08:02:01.227Z,1001.57
2023-03-24T08:03:01.879Z,1001.55
2023-03-24T08:04:02.192Z,1001.53
2023-03-24T08:05:01.040Z,1001.57
2023-03-24T08:06:01.318Z,1001.57
2023-03-24T08:07:01.087Z,1001.45
2023-03-24T08:08:01.087Z,1001.44
2023-03-24T08:09:01.469Z,1001.42
2023-03-24T08:10:01.063Z,1001.34
2023-03-24T08:11:01.082Z,1001.34
2023-03-24T08:12:09.929Z,1001.3
2023-03-24T08:13:01.035Z,1001.32
2023-03-24T08:14:00.674Z,1001.3
2023-03-24T08:15:00.685Z,1001.32
2023-03-24T08:16:00.314Z,1001.3
2023-03-24T08:16:59.896Z,1001.27
2023-03-24T08:17:59.629Z,1001.26
2023-03-24T08:19:03.334Z,1001.29
2023-03-24T08:20:03.274Z,1001.28
2023-03-24T08:21:02.568Z,1001.22
2023-03-24T08:22:01.089Z,1001.25
2023-03-24T08:23:01.058Z,1001.25
2023-03-24T08:24:06.480Z,1001.21
2023-03-24T08:25:01.071Z,1001.24
2023-03-24T08:26:01.067Z,1001.26
2023-03-24T08:27:01.075Z,1001.36
2023-03-24T08:28:01.089Z,1001.28
2023-03-24T08:29:08.996Z,1001.31
2023-03-24T08:30:01.926Z,1001.3
2023-03-24T08:31:01.534Z,1001.3
2023-03-24T08:32:01.347Z,1001.25
2023-03-24T08:33:01.186Z,1001.34
2023-03-24T08:34:13.962Z,1001.36
2023-03-24T08:35:01.934Z,1001.28
2023-03-24T08:36:01.205Z,1001.29
2023-03-24T08:37:01.037Z,1001.31
2023-03-24T08:38:01.131Z,1001.35
2023-03-24T08:39:15.993Z,1001.34
2023-03-24T08:40:01.450Z,1001.36
2023-03-24T08:41:01.097Z,1001.35
2023-03-24T08:42:01.090Z,1001.27
2023-03-24T08:43:01.102Z,1001.32
2023-03-24T08:44:01.105Z,1001.28
2023-03-24T08:45:00.800Z,1001.27
2023-03-24T08:46:00.501Z,1001.32
2023-03-24T08:47:00.290Z,1001.33
2023-03-24T08:48:00.376Z,1001.37
2023-03-24T08:48:59.978Z,1001.34
2023-03-24T08:49:59.571Z,1001.36
2023-03-24T08:51:01.171Z,1001.38
2023-03-24T08:52:01.164Z,1001.39
2023-03-24T08:53:01.755Z,1001.37
2023-03-24T08:54:01.066Z,1001.39
2023-03-24T08:55:01.062Z,1001.4
2023-03-24T08:56:01.059Z,1001.39
2023-03-24T08:57:01.342Z,1001.42
2023-03-24T08:58:02.413Z,1001.33
2023-03-24T08:59:02.151Z,1001.39
2023-03-24T09:00:01.540Z,1001.42
2023-03-24T09:01:01.280Z,1001.42
2023-03-24T09:02:02.142Z,1001.41
2023-03-24T09:03:02.110Z,1001.5
2023-03-24T09:04:01.033Z,1001.47
2023-03-24T09:05:01.104Z,1001.5
2023-03-24T09:06:01.217Z,1001.49
2023-03-24T09:07:03.030Z,1001.55
2023-03-24T09:08:01.145Z,1001.56
2023-03-24T09:09:01.140Z,1001.59
2023-03-24T09:10:01.071Z,1001.52
2023-03-24T09:11:01.039Z,1001.55
2023-03-24T09:12:01.063Z,1001.55
2023-03-24T09:13:01.054Z,1001.58
2023-03-24T09:14:01.059Z,1001.61
2023-03-24T09:15:00.618Z,1001.61
2023-03-24T09:16:00.237Z,1001.59
2023-03-24T09:16:59.947Z,1001.55
2023-03-24T09:17:59.836Z,1001.63
2023-03-24T09:18:59.450Z,1001.61
2023-03-24T09:20:02.585Z,1001.62
2023-03-24T09:21:02.543Z,1001.66
2023-03-24T09:22:01.849Z,1001.64
2023-03-24T09:23:01.583Z,1001.68
2023-03-24T09:24:01.149Z,1001.63
2023-03-24T09:25:01.270Z,1001.69
2023-03-24T09:26:01.258Z,1001.73
2023-03-24T09:27:01.274Z,1001.79
2023-03-24T09:28:01.024Z,1001.71
2023-03-24T09:29:01.027Z,1001.73
2023-03-24T09:30:01.034Z,1001.69
2023-03-24T09:31:01.163Z,1001.8
2023-03-24T09:32:01.071Z,1001.79
2023-03-24T09:33:01.159Z,1001.74
2023-03-24T09:34:03.781Z,1001.8
2023-03-24T09:35:01.098Z,1001.79
2023-03-24T09:36:01.509Z,1001.79
2023-03-24T09:37:01.232Z,1001.79
2023-03-24T09:38:01.124Z,1001.74
2023-03-24T09:39:01.411Z,1001.85
2023-03-24T09:40:01.063Z,1001.74
2023-03-24T09:41:01.117Z,1001.73
2023-03-24T09:42:01.036Z,1001.73
2023-03-24T09:43:01.063Z,1001.71
2023-03-24T09:44:01.277Z,1001.72
2023-03-24T09:45:03.847Z,1001.8
2023-03-24T09:46:01.093Z,1001.82
2023-03-24T09:47:01.129Z,1001.77
2023-03-24T09:48:01.108Z,1001.79
2023-03-24T09:49:01.093Z,1001.79
2023-03-24T09:50:01.326Z,1001.82
2023-03-24T09:51:01.084Z,1001.82
2023-03-24T09:52:01.216Z,1001.77
2023-03-24T09:53:01.230Z,1001.87
2023-03-24T09:54:01.247Z,1001.78
2023-03-24T09:55:01.116Z,1001.8
2023-03-24T09:56:01.145Z,1001.86
2023-03-24T09:57:01.060Z,1001.75
2023-03-24T09:58:01.040Z,1001.71
2023-03-24T09:59:01.069Z,1001.78
2023-03-24T10:00:01.522Z,1001.74
2023-03-24T10:01:01.217Z,1001.78
2023-03-24T10:02:01.075Z,1001.71
2023-03-24T10:03:01.231Z,1001.77
2023-03-24T10:04:01.282Z,1001.79
2023-03-24T10:05:04.255Z,1001.76
2023-03-24T10:06:02.110Z,1001.8
2023-03-24T10:07:01.129Z,1001.78
2023-03-24T10:08:01.154Z,1001.79
2023-03-24T10:09:01.112Z,1001.8
2023-03-24T10:10:06.532Z,1001.8
2023-03-24T10:11:01.141Z,1001.85
2023-03-24T10:12:01.128Z,1001.8
2023-03-24T10:13:01.029Z,1001.8
2023-03-24T10:14:03.144Z,1001.83
2023-03-24T10:15:08.413Z,1001.82
2023-03-24T10:16:01.993Z,1001.79
2023-03-24T10:17:01.093Z,1001.79
2023-03-24T10:18:01.163Z,1001.85
2023-03-24T10:19:01.122Z,1001.84
2023-03-24T10:20:11.653Z,1001.68
2023-03-24T10:21:01.086Z,1001.73
2023-03-24T10:23:01.121Z,1001.74
2023-03-24T10:24:01.259Z,1001.8
2023-03-24T10:25:14.369Z,1001.71
2023-03-24T10:26:01.170Z,1001.75
2023-03-24T10:27:01.560Z,1001.75
2023-03-24T10:28:01.253Z,1001.7
2023-03-24T10:29:01.047Z,1001.76
2023-03-24T10:30:01.051Z,1001.75
2023-03-24T10:31:00.791Z,1001.76
2023-03-24T10:32:00.445Z,1001.72
2023-03-24T10:33:00.047Z,1001.59
2023-03-24T10:33:59.655Z,1001.7
2023-03-24T10:35:01.192Z,1001.69
2023-03-24T10:36:01.096Z,1001.62
2023-03-24T10:37:01.156Z,1001.72
2023-03-24T10:38:01.110Z,1001.74
2023-03-24T10:39:12.624Z,1001.77
2023-03-24T10:40:01.119Z,1001.74
2023-03-24T10:41:01.133Z,1001.71
2023-03-24T10:42:01.122Z,1001.69
2023-03-24T10:43:07.302Z,1001.69
2023-03-24T10:44:01.028Z,1001.65
2023-03-24T10:45:01.048Z,1001.65
2023-03-24T10:46:00.755Z,1001.63
2023-03-24T10:47:00.301Z,1001.67
2023-03-24T10:47:59.909Z,1001.57
2023-03-24T10:48:59.512Z,1001.66
2023-03-24T10:50:14.445Z,1001.59
2023-03-24T10:51:02.188Z,1001.59
2023-03-24T10:52:01.336Z,1001.54
2023-03-24T10:53:02.534Z,1001.56
2023-03-24T10:54:03.266Z,1001.62
2023-03-24T10:55:01.119Z,1001.59
2023-03-24T10:56:01.123Z,1001.56
2023-03-24T10:57:01.443Z,1001.54
2023-03-24T10:58:02.585Z,1001.5
2023-03-24T10:59:01.249Z,1001.51
2023-03-24T11:00:02.127Z,1001.64
2023-03-24T11:01:01.111Z,1001.54
2023-03-24T11:02:01.892Z,1001.66
2023-03-24T11:03:01.966Z,1001.57
2023-03-24T11:04:01.055Z,1001.58
2023-03-24T11:05:01.225Z,1001.64
2023-03-24T11:06:02.132Z,1001.47
2023-03-24T11:07:02.635Z,1001.64
2023-03-24T11:08:01.098Z,1001.59
2023-03-24T11:09:01.102Z,1001.63
2023-03-24T11:10:01.128Z,1001.58
2023-03-24T11:11:01.361Z,1001.59
2023-03-24T11:12:02.019Z,1001.56
2023-03-24T11:13:01.696Z,1001.66
2023-03-24T11:14:01.699Z,1001.59
2023-03-24T11:15:17.659Z,1001.61
2023-03-24T11:16:01.027Z,1001.61
2023-03-24T11:17:01.200Z,1001.62
2023-03-24T11:18:01.894Z,1001.65
2023-03-24T11:19:01.487Z,1001.68
2023-03-24T11:20:01.154Z,1001.7
2023-03-24T11:21:01.436Z,1001.65
2023-03-24T11:22:02.097Z,1001.66
2023-03-24T11:23:01.131Z,1001.67
2023-03-24T11:24:01.083Z,1001.68
2023-03-24T11:25:01.106Z,1001.74
2023-03-24T11:26:01.099Z,1001.68
2023-03-24T11:27:01.559Z,1001.72
2023-03-24T11:28:01.583Z,1001.67
2023-03-24T11:29:01.176Z,1001.78
2023-03-24T11:30:01.835Z,1001.71
2023-03-24T11:31:01.599Z,1001.69
2023-03-24T11:32:01.152Z,1001.62
2023-03-24T11:33:01.097Z,1001.64
2023-03-24T11:34:01.162Z,1001.63
2023-03-24T11:35:02.145Z,1001.7
2023-03-24T11:36:05.521Z,1001.62
2023-03-24T11:37:01.133Z,1001.58
2023-03-24T11:38:01.086Z,1001.66
2023-03-24T11:39:01.091Z,1001.62
2023-03-24T11:40:01.181Z,1001.68
2023-03-24T11:41:01.612Z,1001.66
2023-03-24T11:42:02.320Z,1001.66
2023-03-24T11:43:01.201Z,1001.67
2023-03-24T11:44:01.116Z,1001.66
2023-03-24T11:45:01.132Z,1001.67
2023-03-24T11:46:05.077Z,1001.7
2023-03-24T11:47:01.385Z,1001.69
2023-03-24T11:48:01.213Z,1001.67
2023-03-24T11:49:01.141Z,1001.69
2023-03-24T11:50:01.365Z,1001.71
2023-03-24T11:51:08.481Z,1001.67
2023-03-24T11:52:01.236Z,1001.77
2023-03-24T11:53:01.855Z,1001.66
2023-03-24T11:54:01.906Z,1001.62
2023-03-24T11:55:02.175Z,1001.69
2023-03-24T11:56:13.383Z,1001.65
2023-03-24T11:57:01.169Z,1001.6
2023-03-24T11:58:01.108Z,1001.58
2023-03-24T11:59:01.279Z,1001.5
2023-03-24T12:00:01.047Z,1001.52
2023-03-24T12:01:16.199Z,1001.64
2023-03-24T12:02:01.536Z,1001.55
2023-03-24T12:03:01.241Z,1001.59
2023-03-24T12:04:01.207Z,1001.53
2023-03-24T12:05:01.044Z,1001.47
2023-03-24T12:06:01.410Z,1001.44
2023-03-24T12:07:01.062Z,1001.43
2023-03-24T12:08:01.060Z,1001.5
2023-03-24T12:09:01.062Z,1001.43